Terminal Aerodrome Forecast
Issued by NWS Sioux Falls, SD

Home | Current Version | Previous Version | Graphics & Text | Print | Product List | Glossary On
Versions: 1 2 3 4 5 6 7 8 9 10 11 12 13 14
000
FTUS43 KFSD 170550
TAFHON
TAF
KHON 170550Z 1706/1806 32018G25KT P6SM OVC035
     FM170800 32018G25KT P6SM OVC025
     FM171900 34015G24KT P6SM BKN035
     FM180000 35007KT P6SM BKN025=

USA.gov is the U.S. government's official web portal to all federal, state and local government web resources and services.